createdAt,value
2023-04-14T00:01:50.256Z,4.22
2023-04-14T00:04:22.140Z,4.35
2023-04-14T00:06:52.820Z,2.78
2023-04-14T00:09:20.062Z,4.80
2023-04-14T00:11:55.347Z,2.67
2023-04-14T00:14:25.019Z,2.45
2023-04-14T00:16:52.213Z,3.50
2023-04-14T00:19:32.058Z,5.90
2023-04-14T00:22:18.996Z,8.55
2023-04-14T00:24:50.932Z,4.30
2023-04-14T00:27:18.101Z,3.03
2023-04-14T00:29:51.065Z,2.72
2023-04-14T00:32:25.501Z,2.70
2023-04-14T00:34:52.829Z,3.00
2023-04-14T00:37:24.529Z,4.40
2023-04-14T00:40:15.424Z,4.10
2023-04-14T00:43:00.842Z,6.07
2023-04-14T00:45:55.426Z,4.30
2023-04-14T00:48:23.302Z,3.08
2023-04-14T00:51:05.191Z,3.97
2023-04-14T00:53:51.646Z,3.17
2023-04-14T00:56:24.951Z,3.10
2023-04-14T00:59:03.435Z,4.10
2023-04-14T01:01:40.947Z,3.97
2023-04-14T01:04:51.990Z,4.30
2023-04-14T01:07:41.282Z,2.45
2023-04-14T01:10:16.334Z,5.13
2023-04-14T01:13:03.487Z,5.57
2023-04-14T01:15:36.419Z,6.25
2023-04-14T01:18:40.814Z,4.63
2023-04-14T01:21:18.002Z,3.97
2023-04-14T01:24:29.654Z,3.15
2023-04-14T01:27:09.812Z,4.70
2023-04-14T01:30:16.253Z,5.40
2023-04-14T01:32:51.711Z,7.47
2023-04-14T01:35:56.967Z,4.70
2023-04-14T01:38:39.872Z,6.05
2023-04-14T01:41:27.246Z,9.00
2023-04-14T01:43:59.639Z,4.82
2023-04-14T01:46:38.298Z,2.55
2023-04-14T01:49:09.188Z,3.58
2023-04-14T01:51:42.515Z,3.20
2023-04-14T01:54:24.442Z,4.03
2023-04-14T01:56:54.636Z,5.18
2023-04-14T02:02:40.057Z,5.65
2023-04-14T02:05:13.020Z,3.65
2023-04-14T02:08:09.613Z,4.68
2023-04-14T02:10:58.729Z,8.15
2023-04-14T02:13:30.705Z,6.78
2023-04-14T02:16:02.069Z,3.42
2023-04-14T02:18:43.766Z,7.22
2023-04-14T02:21:36.943Z,3.13
2023-04-14T02:24:06.732Z,2.63
2023-04-14T02:26:41.714Z,7.32
2023-04-14T02:29:16.553Z,2.63
2023-04-14T02:32:01.303Z,2.22
2023-04-14T02:34:43.517Z,2.72
2023-04-14T02:37:30.019Z,2.05
2023-04-14T02:40:09.828Z,5.32
2023-04-14T02:42:50.596Z,3.33
2023-04-14T02:45:38.621Z,3.10
2023-04-14T02:48:18.372Z,5.82
2023-04-14T02:51:06.926Z,2.92
2023-04-14T02:53:53.951Z,4.20
2023-04-14T02:56:31.163Z,4.78
2023-04-14T02:58:58.991Z,3.58
2023-04-14T03:01:49.866Z,3.90
2023-04-14T03:04:19.752Z,5.88
2023-04-14T03:06:58.660Z,4.80
2023-04-14T03:09:27.638Z,3.13
2023-04-14T03:12:05.617Z,3.40
2023-04-14T03:14:33.722Z,3.42
2023-04-14T03:17:13.068Z,1.33
2023-04-14T03:19:54.685Z,3.95
2023-04-14T03:22:23.597Z,3.58
2023-04-14T03:24:58.628Z,4.18
2023-04-14T03:27:46.022Z,6.15
2023-04-14T03:30:19.459Z,2.15
2023-04-14T03:32:59.539Z,1.83
2023-04-14T03:35:34.641Z,2.30
2023-04-14T03:41:10.277Z,2.17
2023-04-14T03:43:43.251Z,3.65
2023-04-14T03:46:29.704Z,4.38
2023-04-14T03:49:07.358Z,3.38
2023-04-14T03:51:39.363Z,3.10
2023-04-14T03:54:14.311Z,6.85
2023-04-14T03:56:54.504Z,3.60
2023-04-14T03:59:30.555Z,3.65
2023-04-14T04:02:11.262Z,5.80
2023-04-14T04:04:52.863Z,0.68
2023-04-14T04:07:45.765Z,4.25
2023-04-14T04:10:20.580Z,4.28
2023-04-14T04:12:59.393Z,4.28
2023-04-14T04:15:30.641Z,3.90
2023-04-14T04:18:06.519Z,3.30
2023-04-14T04:20:37.106Z,1.95
2023-04-14T04:25:37.612Z,2.55
2023-04-14T04:28:12.780Z,3.30
2023-04-14T04:30:51.704Z,4.28
2023-04-14T04:33:27.156Z,3.67
2023-04-14T04:36:02.770Z,3.95
2023-04-14T04:38:37.160Z,3.47
2023-04-14T04:41:10.023Z,2.55
2023-04-14T04:43:39.526Z,2.80
2023-04-14T04:46:43.303Z,3.50
2023-04-14T04:49:20.536Z,2.00
2023-04-14T04:51:57.964Z,3.30
2023-04-14T04:54:30.783Z,2.38
2023-04-14T04:57:20.481Z,3.97
2023-04-14T05:00:05.541Z,2.17
2023-04-14T05:02:37.528Z,1.77
2023-04-14T05:05:11.339Z,2.53
2023-04-14T05:07:57.573Z,4.05
2023-04-14T05:10:45.647Z,2.55
2023-04-14T05:13:13.496Z,1.98
2023-04-14T05:15:40.663Z,1.98
2023-04-14T05:18:23.726Z,4.05
2023-04-14T05:23:31.784Z,4.20
2023-04-14T05:29:00.931Z,2.28
2023-04-14T05:31:42.127Z,1.55
2023-04-14T05:34:18.270Z,3.40
2023-04-14T05:36:48.157Z,1.65
2023-04-14T05:39:45.358Z,4.22
2023-04-14T05:42:40.488Z,2.22
2023-04-14T05:45:21.253Z,1.90
2023-04-14T05:47:48.722Z,4.13
2023-04-14T05:50:27.479Z,3.60
2023-04-14T05:53:22.382Z,2.47
2023-04-14T05:55:59.602Z,2.05
2023-04-14T05:58:54.315Z,3.42
2023-04-14T06:01:38.058Z,1.48
2023-04-14T06:04:11.025Z,2.90
2023-04-14T06:06:46.174Z,3.53
2023-04-14T06:12:24.958Z,1.55
2023-04-14T06:15:00.435Z,1.92
2023-04-14T06:17:35.761Z,3.60
2023-04-14T06:20:24.119Z,2.40
2023-04-14T06:23:13.129Z,3.03
2023-04-14T06:25:51.287Z,0.88
2023-04-14T06:28:29.043Z,5.55
2023-04-14T06:31:10.248Z,2.35
2023-04-14T06:33:41.034Z,5.25
2023-04-14T06:36:11.005Z,3.78
2023-04-14T06:38:49.655Z,3.83
2023-04-14T06:41:24.347Z,3.75
2023-04-14T06:44:03.493Z,5.75
2023-04-14T06:46:41.655Z,5.45
2023-04-14T06:49:21.813Z,2.33
2023-04-14T06:51:58.000Z,1.58
2023-04-14T06:54:32.207Z,2.33
2023-04-14T06:57:00.105Z,3.33
2023-04-14T06:59:31.682Z,4.00
2023-04-14T07:02:28.448Z,2.42
2023-04-14T07:05:12.046Z,3.25
2023-04-14T07:07:58.194Z,3.45
2023-04-14T07:10:37.001Z,1.40
2023-04-14T07:13:09.457Z,2.95
2023-04-14T07:15:46.038Z,2.58
2023-04-14T07:18:28.620Z,2.88
2023-04-14T07:21:33.452Z,0.45
2023-04-14T07:24:17.659Z,1.63
2023-04-14T07:26:55.923Z,0.65
2023-04-14T07:29:30.508Z,5.63
2023-04-14T07:32:10.064Z,2.40
2023-04-14T07:35:25.704Z,1.58
2023-04-14T07:38:13.700Z,0.57
2023-04-14T07:40:48.974Z,0.10
2023-04-14T07:43:21.796Z,0.17
2023-04-14T07:45:58.018Z,0.77
2023-04-14T07:48:32.510Z,1.63
2023-04-14T07:51:11.641Z,0.63
2023-04-14T07:53:58.307Z,2.17
2023-04-14T07:56:56.535Z,7.38
2023-04-14T07:59:29.085Z,1.67
2023-04-14T08:02:07.617Z,1.30
2023-04-14T08:04:42.737Z,0.88
2023-04-14T08:07:09.581Z,2.47
2023-04-14T08:09:36.569Z,1.17
2023-04-14T08:12:03.407Z,1.15
2023-04-14T08:14:30.156Z,0.82
2023-04-14T08:16:58.818Z,1.45
2023-04-14T08:19:25.799Z,1.90
2023-04-14T08:21:52.668Z,2.88
2023-04-14T08:24:19.365Z,3.30
2023-04-14T08:26:46.462Z,5.40
2023-04-14T08:29:13.263Z,0.55
2023-04-14T08:31:42.390Z,4.30
2023-04-14T08:34:09.249Z,2.92
2023-04-14T08:36:35.974Z,2.22
2023-04-14T08:39:04.185Z,2.42
2023-04-14T08:41:34.433Z,3.13
2023-04-14T08:44:01.687Z,1.60
2023-04-14T08:46:28.631Z,2.05
2023-04-14T08:49:05.274Z,1.30
2023-04-14T08:51:35.021Z,1.27
2023-04-14T08:54:05.585Z,2.08
2023-04-14T08:56:38.324Z,0.32
2023-04-14T08:59:07.590Z,0.38
2023-04-14T09:01:36.111Z,3.08
2023-04-14T09:04:04.826Z,1.55
2023-04-14T09:06:34.512Z,0.93
2023-04-14T09:09:06.931Z,2.10
2023-04-14T09:11:34.065Z,2.28
2023-04-14T09:14:01.947Z,0.55
2023-04-14T09:16:32.475Z,1.38
2023-04-14T09:19:06.432Z,1.98
2023-04-14T09:21:51.659Z,2.67
2023-04-14T09:24:25.002Z,2.50
2023-04-14T09:26:52.131Z,3.97
2023-04-14T09:29:18.816Z,1.65
2023-04-14T09:31:46.761Z,4.68
2023-04-14T09:34:18.437Z,2.00
2023-04-14T09:37:00.106Z,2.95
2023-04-14T09:39:27.171Z,3.70
2023-04-14T09:41:54.124Z,1.05
2023-04-14T09:44:21.935Z,2.30
2023-04-14T09:47:06.296Z,2.58
2023-04-14T09:49:33.773Z,2.55
2023-04-14T09:52:08.877Z,2.30
2023-04-14T09:54:36.239Z,4.30
2023-04-14T09:57:03.027Z,1.40
2023-04-14T09:59:39.301Z,2.90
2023-04-14T10:02:09.542Z,2.08
2023-04-14T10:04:38.129Z,1.42
2023-04-14T10:07:11.209Z,4.70
2023-04-14T10:09:39.286Z,5.45
2023-04-14T10:12:13.882Z,2.75
2023-04-14T10:14:41.477Z,2.85
2023-04-14T10:17:09.065Z,3.15
2023-04-14T10:19:37.902Z,7.10
2023-04-14T10:22:06.176Z,2.40
2023-04-14T10:24:33.473Z,1.30
2023-04-14T10:27:03.025Z,1.65
2023-04-14T10:29:30.961Z,6.30
2023-04-14T10:32:05.513Z,5.88
2023-04-14T10:34:33.367Z,2.60
2023-04-14T10:37:14.141Z,3.90
2023-04-14T10:39:42.740Z,2.47
2023-04-14T10:42:09.673Z,1.00
2023-04-14T10:44:36.841Z,1.10
2023-04-14T10:47:07.706Z,4.55
2023-04-14T10:49:40.143Z,3.72
2023-04-14T10:52:12.706Z,2.65
2023-04-14T10:54:53.486Z,0.47
2023-04-14T10:57:24.852Z,0.65
2023-04-14T10:59:56.032Z,1.90
2023-04-14T11:02:25.600Z,0.50
2023-04-14T11:05:09.262Z,2.13
2023-04-14T11:07:47.086Z,1.73
2023-04-14T11:10:16.857Z,4.60
2023-04-14T11:12:44.708Z,0.35
2023-04-14T11:15:11.767Z,2.42
2023-04-14T11:17:43.573Z,2.05
2023-04-14T11:20:21.154Z,0.80
2023-04-14T11:22:52.746Z,1.92
2023-04-14T11:25:24.104Z,1.70
2023-04-14T11:27:52.224Z,0.75
2023-04-14T11:30:20.720Z,1.83
2023-04-14T11:32:48.072Z,1.52
2023-04-14T11:35:16.037Z,1.40
2023-04-14T11:37:43.692Z,1.70
2023-04-14T11:40:12.131Z,2.75
2023-04-14T11:42:43.666Z,2.60
2023-04-14T11:45:10.944Z,0.60
2023-04-14T11:47:37.687Z,0.28
2023-04-14T11:50:05.833Z,1.52
2023-04-14T11:52:35.681Z,1.13
2023-04-14T11:55:02.849Z,1.55
2023-04-14T11:57:29.762Z,0.63
2023-04-14T11:59:57.191Z,0.85
2023-04-14T12:02:24.138Z,0.80
2023-04-14T12:04:51.897Z,1.85
2023-04-14T12:07:20.313Z,0.98
2023-04-14T12:09:49.087Z,1.20
2023-04-14T12:12:20.356Z,0.95
2023-04-14T12:14:49.666Z,3.90
2023-04-14T12:17:21.644Z,3.03
2023-04-14T12:19:49.047Z,0.95
2023-04-14T12:22:27.095Z,4.78
2023-04-14T12:24:55.460Z,4.05
2023-04-14T12:27:24.526Z,1.35
2023-04-14T12:29:52.196Z,1.25
2023-04-14T12:32:19.232Z,0.28
2023-04-14T12:34:57.834Z,3.92
2023-04-14T12:37:27.026Z,2.17
2023-04-14T12:39:59.156Z,1.23
2023-04-14T12:42:43.053Z,3.58
2023-04-14T12:45:10.595Z,1.70
2023-04-14T12:47:37.860Z,1.13
2023-04-14T12:50:28.799Z,0.88
2023-04-14T12:52:59.956Z,5.10
2023-04-14T12:55:28.595Z,3.40
2023-04-14T12:57:56.677Z,1.02
2023-04-14T13:00:26.199Z,0.55
2023-04-14T13:02:53.678Z,0.40
2023-04-14T13:05:20.494Z,0.88
2023-04-14T13:07:47.826Z,2.60
2023-04-14T13:10:14.926Z,1.13
2023-04-14T13:12:42.100Z,1.83
2023-04-14T13:15:09.407Z,0.93
2023-04-14T13:17:56.086Z,0.28
2023-04-14T13:20:22.858Z,1.58
2023-04-14T13:22:49.570Z,1.23
2023-04-14T13:25:16.747Z,0.40
2023-04-14T13:27:43.531Z,0.65
2023-04-14T13:30:10.848Z,0.95
2023-04-14T13:32:37.576Z,0.82
2023-04-14T13:35:04.545Z,2.17
2023-04-14T13:37:31.333Z,0.45
2023-04-14T13:39:58.037Z,1.23
2023-04-14T13:42:25.020Z,1.67
2023-04-14T13:44:52.791Z,1.40
2023-04-14T13:47:20.637Z,0.30
2023-04-14T13:49:48.530Z,3.65
2023-04-14T13:52:15.763Z,1.55
2023-04-14T13:54:53.178Z,1.92
2023-04-14T13:57:23.078Z,2.83
2023-04-14T13:59:50.798Z,2.42
2023-04-14T14:02:18.147Z,1.52
2023-04-14T14:04:45.442Z,0.77
2023-04-14T14:07:13.207Z,9.68
2023-04-14T14:09:41.016Z,2.63
2023-04-14T14:12:13.444Z,1.75
2023-04-14T14:14:42.574Z,0.52
2023-04-14T14:17:13.438Z,2.35
2023-04-14T14:19:41.154Z,2.00
2023-04-14T14:22:08.708Z,1.98
2023-04-14T14:24:36.330Z,1.90
2023-04-14T14:27:04.512Z,1.98
2023-04-14T14:29:32.240Z,1.08
2023-04-14T14:32:00.010Z,1.85
2023-04-14T14:34:27.117Z,1.48
2023-04-14T14:36:55.785Z,0.88
2023-04-14T14:39:25.014Z,2.08
2023-04-14T14:42:00.775Z,0.88
2023-04-14T14:44:27.983Z,1.40
2023-04-14T14:46:55.520Z,0.95
2023-04-14T14:49:23.100Z,0.63
2023-04-14T14:52:03.335Z,1.02
2023-04-14T14:54:30.910Z,2.30
2023-04-14T14:56:58.339Z,1.73
2023-04-14T14:59:25.401Z,1.63
2023-04-14T15:01:53.353Z,3.00
2023-04-14T15:04:23.718Z,2.20
2023-04-14T15:09:18.626Z,3.78
2023-04-14T15:11:47.580Z,5.72
2023-04-14T15:14:15.540Z,0.70
2023-04-14T15:16:42.697Z,2.20
2023-04-14T15:19:10.208Z,1.63
2023-04-14T15:21:37.166Z,1.60
2023-04-14T15:24:04.516Z,1.35
2023-04-14T15:26:32.416Z,1.42
2023-04-14T15:28:59.629Z,4.25
2023-04-14T15:31:27.853Z,1.40
2023-04-14T15:34:03.072Z,4.00
2023-04-14T15:36:31.634Z,0.68
2023-04-14T15:38:59.537Z,2.53
2023-04-14T15:41:26.894Z,0.55
2023-04-14T15:44:03.018Z,5.68
2023-04-14T15:46:30.920Z,2.50
2023-04-14T15:48:59.614Z,1.60
2023-04-14T15:51:27.428Z,1.65
2023-04-14T15:53:55.185Z,0.77
2023-04-14T15:56:31.808Z,1.48
2023-04-14T16:01:26.453Z,1.90
2023-04-14T16:03:53.688Z,0.35
2023-04-14T16:06:21.555Z,2.05
2023-04-14T16:08:48.568Z,1.05
2023-04-14T16:11:17.470Z,1.23
2023-04-14T16:13:53.337Z,0.60
2023-04-14T16:16:21.177Z,0.43
2023-04-14T16:18:49.791Z,1.15
2023-04-14T16:21:17.008Z,2.08
2023-04-14T16:23:44.754Z,0.77
2023-04-14T16:26:13.931Z,0.90
2023-04-14T16:28:41.862Z,1.13
2023-04-14T16:31:09.620Z,0.75
2023-04-14T16:33:37.286Z,2.42
2023-04-14T16:36:06.710Z,2.28
2023-04-14T16:38:34.561Z,0.55
2023-04-14T16:41:12.934Z,1.08
2023-04-14T16:43:40.957Z,1.60
2023-04-14T16:46:08.957Z,2.15
2023-04-14T16:48:45.749Z,2.45
2023-04-14T16:51:21.219Z,4.95
2023-04-14T16:53:50.287Z,0.65
2023-04-14T16:56:18.569Z,2.15
2023-04-14T16:58:46.506Z,3.03
2023-04-14T17:01:14.640Z,1.80
2023-04-14T17:03:52.848Z,2.47
2023-04-14T17:06:21.439Z,3.78
2023-04-14T17:08:49.241Z,4.70
2023-04-14T17:11:16.613Z,4.03
2023-04-14T17:13:44.139Z,3.35
2023-04-14T17:16:23.874Z,3.63
2023-04-14T17:18:52.013Z,3.10
2023-04-14T17:21:19.532Z,0.47
2023-04-14T17:23:47.334Z,2.85
2023-04-14T17:26:16.482Z,1.80
2023-04-14T17:28:44.166Z,1.95
2023-04-14T17:31:16.419Z,2.45
2023-04-14T17:33:44.876Z,1.60
2023-04-14T17:36:15.061Z,2.03
2023-04-14T17:38:43.508Z,1.08
2023-04-14T17:41:12.286Z,2.22
2023-04-14T17:43:41.606Z,4.15
2023-04-14T17:46:09.089Z,1.05
2023-04-14T17:48:36.406Z,5.43
2023-04-14T17:51:04.444Z,2.85
2023-04-14T17:53:31.534Z,2.75
2023-04-14T17:55:58.408Z,2.17
2023-04-14T17:58:26.647Z,7.25
2023-04-14T18:00:53.846Z,4.13
2023-04-14T18:03:21.021Z,2.47
2023-04-14T18:05:48.313Z,4.35
2023-04-14T18:08:16.118Z,12.05
2023-04-14T18:10:45.580Z,3.38
2023-04-14T18:13:12.845Z,3.67
2023-04-14T18:15:41.832Z,6.57
2023-04-14T18:18:09.069Z,3.97
2023-04-14T18:20:36.343Z,3.80
2023-04-14T18:23:03.107Z,4.68
2023-04-14T18:28:03.263Z,4.60
2023-04-14T18:30:30.508Z,4.03
2023-04-14T18:32:57.321Z,5.80
2023-04-14T18:35:25.088Z,7.43
2023-04-14T18:37:51.782Z,4.10
2023-04-14T18:40:18.573Z,4.80
2023-04-14T18:42:45.333Z,4.07
2023-04-14T18:45:12.715Z,4.03
2023-04-14T18:47:39.521Z,4.55
2023-04-14T18:50:07.618Z,5.70
2023-04-14T18:52:34.381Z,4.63
2023-04-14T18:55:01.101Z,5.45
2023-04-14T18:57:29.175Z,3.25
2023-04-14T18:59:55.998Z,3.13
2023-04-14T19:02:22.827Z,6.22
2023-04-14T19:04:49.851Z,2.80
2023-04-14T19:07:18.428Z,4.25
2023-04-14T19:09:45.185Z,6.10
2023-04-14T19:12:21.708Z,3.70
2023-04-14T19:14:54.155Z,4.22
2023-04-14T19:17:20.944Z,6.05
2023-04-14T19:19:47.849Z,5.82
2023-04-14T19:22:16.160Z,3.95
2023-04-14T19:24:42.878Z,5.13
2023-04-14T19:27:10.303Z,3.83
2023-04-14T19:29:37.075Z,5.53
2023-04-14T19:32:04.956Z,10.48
2023-04-14T19:34:31.959Z,6.60
2023-04-14T19:36:58.659Z,8.70
2023-04-14T19:39:25.739Z,8.40
2023-04-14T19:41:52.535Z,6.28
2023-04-14T19:44:19.334Z,7.80
2023-04-14T19:46:46.502Z,4.53
2023-04-14T19:49:14.220Z,3.90
2023-04-14T19:51:41.093Z,5.22
2023-04-14T19:54:07.895Z,4.28
2023-04-14T19:56:34.945Z,2.22
2023-04-14T19:59:02.144Z,5.68
2023-04-14T20:01:29.037Z,5.65
2023-04-14T20:04:05.361Z,4.57
2023-04-14T20:06:40.236Z,5.68
2023-04-14T20:09:07.043Z,5.25
2023-04-14T20:11:33.719Z,5.18
2023-04-14T20:14:00.477Z,5.13
2023-04-14T20:16:27.264Z,3.83
2023-04-14T20:18:53.901Z,5.15
2023-04-14T20:21:20.592Z,4.25
2023-04-14T20:23:48.069Z,4.85
2023-04-14T20:26:15.376Z,1.73
2023-04-14T20:28:42.909Z,6.07
2023-04-14T20:31:10.357Z,4.50
2023-04-14T20:33:37.752Z,3.95
2023-04-14T20:36:04.549Z,6.32
2023-04-14T20:38:31.427Z,5.35
2023-04-14T20:40:58.413Z,4.50
2023-04-14T20:43:25.216Z,4.35
2023-04-14T20:45:53.158Z,4.03
2023-04-14T20:48:20.582Z,5.43
2023-04-14T20:50:49.692Z,5.60
2023-04-14T20:53:17.873Z,3.25
2023-04-14T20:55:44.608Z,5.38
2023-04-14T20:58:11.345Z,4.72
2023-04-14T21:00:38.066Z,7.35
2023-04-14T21:03:04.981Z,6.15
2023-04-14T21:05:31.734Z,4.65
2023-04-14T21:07:58.565Z,4.43
2023-04-14T21:10:25.877Z,5.45
2023-04-14T21:15:40.019Z,7.07
2023-04-14T21:15:53.679Z,5.38
2023-04-14T21:18:23.066Z,5.20
2023-04-14T21:20:49.902Z,5.38
2023-04-14T21:23:16.870Z,5.40
2023-04-14T21:25:43.694Z,3.88
2023-04-14T21:28:10.503Z,6.82
2023-04-14T21:30:37.761Z,6.32
2023-04-14T21:33:07.500Z,5.18
2023-04-14T21:35:35.154Z,5.47
2023-04-14T21:38:02.630Z,6.45
2023-04-14T21:40:29.639Z,6.50
2023-04-14T21:42:56.624Z,5.65
2023-04-14T21:45:23.473Z,5.75
2023-04-14T21:47:50.351Z,6.35
2023-04-14T21:50:17.334Z,4.75
2023-04-14T21:52:44.129Z,7.80
2023-04-14T21:55:10.903Z,6.53
2023-04-14T21:57:48.516Z,10.27
2023-04-14T22:00:20.509Z,9.40
2023-04-14T22:02:47.596Z,6.53
2023-04-14T22:05:14.867Z,10.77
2023-04-14T22:07:41.568Z,6.97
2023-04-14T22:10:08.646Z,7.07
2023-04-14T22:12:39.770Z,5.80
2023-04-14T22:15:10.594Z,10.23
2023-04-14T22:17:41.527Z,8.32
2023-04-14T22:20:09.770Z,7.25
2023-04-14T22:22:36.983Z,7.30
2023-04-14T22:25:04.331Z,7.28
2023-04-14T22:27:32.130Z,5.82
2023-04-14T22:29:59.048Z,8.45
2023-04-14T22:32:25.952Z,7.78
2023-04-14T22:34:52.960Z,7.05
2023-04-14T22:37:20.130Z,6.75
2023-04-14T22:39:46.856Z,5.78
2023-04-14T22:42:13.497Z,5.82
2023-04-14T22:44:40.256Z,8.48
2023-04-14T22:47:07.100Z,7.68
2023-04-14T22:49:33.860Z,7.05
2023-04-14T22:52:00.869Z,7.57
2023-04-14T22:54:27.596Z,8.52
2023-04-14T22:56:54.331Z,6.63
2023-04-14T22:59:21.540Z,5.82
2023-04-14T23:01:48.568Z,6.18
2023-04-14T23:04:15.510Z,7.47
2023-04-14T23:06:42.430Z,6.72
2023-04-14T23:09:09.201Z,7.60
2023-04-14T23:11:35.877Z,7.80
2023-04-14T23:14:03.653Z,9.20
2023-04-14T23:16:31.131Z,7.28
2023-04-14T23:18:57.951Z,5.70
2023-04-14T23:21:24.926Z,8.60
2023-04-14T23:23:51.817Z,5.88
2023-04-14T23:26:22.790Z,7.00
2023-04-14T23:28:49.634Z,7.18
2023-04-14T23:31:17.429Z,8.52
2023-04-14T23:33:45.247Z,6.63
2023-04-14T23:36:12.492Z,6.78
2023-04-14T23:38:39.436Z,7.05
2023-04-14T23:41:06.145Z,8.15
2023-04-14T23:43:32.856Z,8.82
2023-04-14T23:45:59.633Z,8.23
2023-04-14T23:48:27.168Z,6.72
2023-04-14T23:51:01.335Z,10.48
2023-04-14T23:53:41.391Z,7.05
2023-04-14T23:56:08.702Z,12.73
2023-04-14T23:58:36.091Z,10.45
